Time;durP1;ratioP1;P1;durP2;ratioP2;P2;SDS_P1;SDS_P2;PMS_P1;PMS_P2;Temp;Humidity;BMP_temperature;BMP_pressure;BME280_temperature;BME280_humidity;BME280_pressure;Samples;Min_cycle;Max_cycle;Signal;HPM_P1;HPM_P2
2021/12/04 00:02:25;;;;;;;14.23;12.23;;;7.40;99.90;;;;;;5104413;28;20288;-84
2021/12/04 00:04:53;;;;;;;15.00;12.60;;;7.40;99.90;;;;;;5104489;28;20223;-84
2021/12/04 00:07:22;;;;;;;16.67;12.83;;;7.40;99.90;;;;;;5104906;28;20242;-84
2021/12/04 00:09:50;;;;;;;16.60;13.30;;;7.40;99.90;;;;;;5105873;28;20280;-85
2021/12/04 00:12:19;;;;;;;14.37;12.63;;;7.50;99.90;;;;;;5104606;28;20730;-85
2021/12/04 00:14:46;;;;;;;15.10;13.07;;;7.40;99.90;;;;;;5098347;28;20242;-83
2021/12/04 00:17:15;;;;;;;16.13;13.40;;;7.40;99.90;;;;;;5093616;28;20219;-84
2021/12/04 00:19:42;;;;;;;33.63;14.33;;;7.40;99.90;;;;;;5093381;28;20280;-83
2021/12/04 00:22:09;;;;;;;16.23;13.93;;;7.40;99.90;;;;;;5095156;28;20302;-84
2021/12/04 00:24:36;;;;;;;16.83;12.63;;;7.40;99.90;;;;;;5090455;28;20313;-83
2021/12/04 00:27:03;;;;;;;17.03;13.83;;;7.40;99.90;;;;;;5091283;28;20592;-83
2021/12/04 00:29:29;;;;;;;15.07;13.20;;;7.50;99.90;;;;;;5089762;28;21197;-84
2021/12/04 00:32:00;;;;;;;17.60;13.53;;;7.50;99.90;;;;;;5088953;28;20230;-83
2021/12/04 00:34:30;;;;;;;16.57;12.93;;;7.40;99.90;;;;;;5090738;28;20232;-83
2021/12/04 00:37:13;;;;;;;16.70;14.30;;;7.50;99.90;;;;;;5094116;28;20307;-84
2021/12/04 00:50:39;;;;;;;20.33;14.07;;;7.50;99.90;;;;;;5075220;28;20238;-83
2021/12/04 00:53:05;;;;;;;18.33;14.90;;;7.50;99.90;;;;;;5088980;28;20301;-84
2021/12/04 00:55:32;;;;;;;19.60;15.13;;;7.50;99.90;;;;;;5089138;28;20218;-84
2021/12/04 00:57:59;;;;;;;21.37;15.60;;;7.50;99.90;;;;;;5090920;28;20348;-82
2021/12/04 01:00:25;;;;;;;19.23;14.87;;;7.50;99.90;;;;;;5089683;28;20222;-82
2021/12/04 01:02:52;;;;;;;20.63;15.30;;;7.50;99.90;;;;;;5090640;28;20309;-82
2021/12/04 01:05:19;;;;;;;19.97;15.93;;;7.50;99.90;;;;;;5092283;28;20207;-85
2021/12/04 01:07:47;;;;;;;22.23;17.03;;;7.60;99.90;;;;;;5090300;28;20314;-83
2021/12/04 01:10:14;;;;;;;21.97;15.93;;;7.50;99.90;;;;;;5091630;28;20221;-83
2021/12/04 01:12:42;;;;;;;19.40;16.07;;;7.50;99.90;;;;;;5088462;28;20822;-82
2021/12/04 01:15:10;;;;;;;20.53;15.63;;;7.50;99.90;;;;;;5077113;28;20678;-86
2021/12/04 01:17:37;;;;;;;22.63;16.30;;;7.50;99.90;;;;;;5088279;28;20297;-86
2021/12/04 01:20:04;;;;;;;28.70;16.93;;;7.50;99.90;;;;;;5090511;28;20225;-86
2021/12/04 01:22:33;;;;;;;25.10;16.63;;;7.50;99.90;;;;;;5086204;28;20306;-85
2021/12/04 01:25:01;;;;;;;20.03;15.97;;;7.50;99.90;;;;;;5087393;28;20733;-85
2021/12/04 01:27:28;;;;;;;22.63;16.07;;;7.50;99.90;;;;;;5116701;27;20919;-85
2021/12/04 01:29:55;;;;;;;25.03;16.40;;;7.60;99.90;;;;;;5091374;28;20223;-85
2021/12/04 01:32:22;;;;;;;21.40;16.80;;;7.60;99.90;;;;;;5091268;28;20235;-85
2021/12/04 01:34:49;;;;;;;22.93;16.80;;;7.50;99.90;;;;;;5091535;28;20315;-85
2021/12/04 01:37:15;;;;;;;22.40;17.37;;;7.60;99.90;;;;;;5090541;28;20220;-85
2021/12/04 01:39:42;;;;;;;21.60;16.60;;;7.60;99.90;;;;;;5091360;28;20238;-85
2021/12/04 01:42:10;;;;;;;25.53;16.97;;;7.60;99.90;;;;;;5091053;28;20221;-85
2021/12/04 01:44:37;;;;;;;30.40;17.67;;;7.60;99.90;;;;;;5091208;28;20257;-85
2021/12/04 01:47:12;;;;;;;20.17;16.13;;;7.60;99.90;;;;;;5090187;28;20215;-86
2021/12/04 01:49:39;;;;;;;24.73;17.73;;;7.60;99.90;;;;;;5090183;28;20231;-86
2021/12/04 01:52:07;;;;;;;23.00;16.97;;;7.60;99.90;;;;;;5082862;28;20280;-85
2021/12/04 01:54:34;;;;;;;22.03;16.83;;;7.60;99.90;;;;;;5085979;28;20303;-85
2021/12/04 01:57:01;;;;;;;21.17;16.50;;;7.60;99.90;;;;;;5090129;28;20214;-85
2021/12/04 01:59:30;;;;;;;23.50;17.00;;;7.60;99.90;;;;;;5089689;28;20389;-85
2021/12/04 02:01:57;;;;;;;20.30;15.93;;;7.60;99.90;;;;;;5105544;28;20850;-84
2021/12/04 02:04:24;;;;;;;21.57;16.03;;;7.60;99.90;;;;;;5089819;28;20255;-84
2021/12/04 02:06:51;;;;;;;22.33;16.00;;;7.60;99.90;;;;;;5090820;28;20232;-83
2021/12/04 02:09:17;;;;;;;21.67;15.37;;;7.60;99.90;;;;;;5092056;28;20218;-84
2021/12/04 02:11:45;;;;;;;24.07;15.97;;;7.60;99.90;;;;;;5092793;28;20230;-83
2021/12/04 02:14:12;;;;;;;19.97;15.53;;;7.60;99.90;;;;;;5093384;28;20643;-84
2021/12/04 02:16:41;;;;;;;19.47;14.90;;;7.60;99.90;;;;;;5091886;28;20873;-83
2021/12/04 02:19:08;;;;;;;20.70;15.67;;;7.60;99.90;;;;;;5091824;28;20226;-83
2021/12/04 02:21:36;;;;;;;19.57;15.03;;;7.60;99.90;;;;;;5092455;28;20227;-82
2021/12/04 02:24:02;;;;;;;21.70;15.53;;;7.60;99.90;;;;;;5091863;28;20228;-83
2021/12/04 02:26:29;;;;;;;19.07;14.47;;;7.60;99.90;;;;;;5090302;28;20237;-85
2021/12/04 02:28:57;;;;;;;20.33;15.20;;;7.60;99.90;;;;;;5091264;28;20223;-84
2021/12/04 02:31:24;;;;;;;20.07;15.47;;;7.60;99.90;;;;;;5090838;28;20235;-85
2021/12/04 02:33:51;;;;;;;19.03;15.10;;;7.70;99.90;;;;;;5090818;28;20243;-85
2021/12/04 02:36:18;;;;;;;19.27;15.53;;;7.60;99.90;;;;;;5090380;28;20225;-85
2021/12/04 02:38:50;;;;;;;21.37;15.97;;;7.60;99.90;;;;;;5091174;28;20245;-85
2021/12/04 02:41:19;;;;;;;18.23;14.77;;;7.60;99.90;;;;;;5090838;28;20568;-85
2021/12/04 02:43:46;;;;;;;17.90;14.40;;;7.60;99.90;;;;;;5082967;28;20226;-85
2021/12/04 02:46:14;;;;;;;21.90;15.57;;;7.60;99.90;;;;;;5082212;28;20707;-84
2021/12/04 02:48:42;;;;;;;19.00;15.00;;;7.60;99.90;;;;;;5088956;28;20233;-84
2021/12/04 02:51:09;;;;;;;19.43;15.13;;;7.60;99.90;;;;;;5090007;28;20211;-83
2021/12/04 02:53:36;;;;;;;20.07;15.87;;;7.60;99.90;;;;;;5090713;28;20232;-84
2021/12/04 02:56:06;;;;;;;21.10;16.10;;;7.70;99.90;;;;;;5090083;28;20237;-84
2021/12/04 02:58:33;;;;;;;23.90;17.33;;;7.60;99.90;;;;;;5090286;28;20256;-84
2021/12/04 03:01:00;;;;;;;22.30;16.63;;;7.60;99.90;;;;;;5091426;28;20230;-84
2021/12/04 03:03:27;;;;;;;25.17;17.80;;;7.60;99.90;;;;;;5090775;28;20305;-85
2021/12/04 03:05:54;;;;;;;26.57;16.80;;;7.60;99.90;;;;;;5090200;28;20302;-84
2021/12/04 03:08:21;;;;;;;24.50;17.47;;;7.60;99.90;;;;;;5090309;28;20313;-83
2021/12/04 03:10:48;;;;;;;22.67;17.33;;;7.60;99.90;;;;;;5086326;28;20683;-85
2021/12/04 03:13:18;;;;;;;25.30;18.27;;;7.60;99.90;;;;;;5084653;28;20251;-84
2021/12/04 03:15:47;;;;;;;24.70;17.93;;;7.60;99.90;;;;;;5071955;28;20335;-84
2021/12/04 03:18:14;;;;;;;23.50;17.63;;;7.60;99.90;;;;;;5088037;28;20214;-83
2021/12/04 03:20:43;;;;;;;25.43;18.00;;;7.60;99.90;;;;;;5084776;28;20233;-83
2021/12/04 03:23:15;;;;;;;24.97;18.37;;;7.60;99.90;;;;;;5089153;28;20851;-84
2021/12/04 03:25:46;;;;;;;25.03;18.53;;;7.60;99.90;;;;;;5069528;28;20235;-84
2021/12/04 03:28:15;;;;;;;23.13;17.50;;;7.60;99.90;;;;;;5070771;28;20215;-83
2021/12/04 03:30:47;;;;;;;25.40;18.13;;;7.60;99.90;;;;;;5070944;28;20226;-83
2021/12/04 03:41:27;;;;;;;24.00;18.07;;;7.70;99.90;;;;;;5087292;28;20234;-86
2021/12/04 03:43:54;;;;;;;29.60;20.00;;;7.70;99.90;;;;;;5093865;28;20310;-85
2021/12/04 03:46:23;;;;;;;24.90;18.47;;;7.70;99.90;;;;;;5089633;28;20241;-85
2021/12/04 03:48:51;;;;;;;28.50;20.07;;;7.70;99.90;;;;;;5092943;28;20321;-84
2021/12/04 03:51:19;;;;;;;27.30;18.87;;;7.70;99.90;;;;;;5091411;28;20221;-84
2021/12/04 03:53:46;;;;;;;26.53;19.20;;;7.70;99.90;;;;;;5078401;28;20927;-84
2021/12/04 03:56:14;;;;;;;28.90;19.70;;;7.70;99.90;;;;;;5089993;28;20224;-84
2021/12/04 03:58:41;;;;;;;27.90;19.70;;;7.70;99.90;;;;;;5088029;28;20212;-83
2021/12/04 04:01:08;;;;;;;67.00;23.00;;;7.70;99.90;;;;;;5087449;28;20221;-84
2021/12/04 04:03:36;;;;;;;28.83;20.37;;;7.70;99.90;;;;;;5090547;28;20218;-83
2021/12/04 04:06:03;;;;;;;26.67;19.57;;;7.70;99.90;;;;;;5089021;28;20223;-82
2021/12/04 04:08:30;;;;;;;33.07;21.10;;;7.70;99.90;;;;;;5087357;28;20227;-82
2021/12/04 04:10:57;;;;;;;29.17;20.33;;;7.70;99.90;;;;;;5089041;28;20313;-84
2021/12/04 04:13:23;;;;;;;30.53;19.47;;;7.70;99.90;;;;;;5092953;28;20311;-86
2021/12/04 04:15:50;;;;;;;28.67;20.77;;;7.70;99.90;;;;;;5089029;28;20226;-84
2021/12/04 04:18:17;;;;;;;28.60;19.83;;;7.70;99.90;;;;;;5085853;28;20215;-83
2021/12/04 04:20:46;;;;;;;31.07;21.00;;;7.70;99.90;;;;;;5092538;28;20222;-84
2021/12/04 04:23:13;;;;;;;28.37;20.43;;;7.80;99.90;;;;;;5088994;28;20220;-83
2021/12/04 04:25:39;;;;;;;29.83;20.77;;;7.70;99.90;;;;;;5081593;28;20714;-83
2021/12/04 04:28:06;;;;;;;29.73;21.63;;;7.70;99.90;;;;;;5109098;27;20249;-84
2021/12/04 04:30:33;;;;;;;30.63;21.23;;;7.70;99.90;;;;;;5089568;28;20226;-84
2021/12/04 04:33:01;;;;;;;27.60;19.83;;;7.70;99.90;;;;;;5094165;28;20303;-82
2021/12/04 04:35:28;;;;;;;32.07;20.47;;;7.70;99.90;;;;;;5092681;28;20583;-82
2021/12/04 04:38:03;;;;;;;29.77;20.73;;;7.70;99.90;;;;;;5091036;28;20210;-82
2021/12/04 04:59:52;;;;;;;32.03;20.83;;;7.70;99.90;;;;;;5074057;28;20745;-83
2021/12/04 05:02:29;;;;;;;28.63;20.47;;;7.70;99.90;;;;;;5073832;28;20228;-83
2021/12/04 05:10:51;;;;;;;26.90;20.57;;;7.70;99.90;;;;;;5072272;28;20619;-84
2021/12/04 05:13:19;;;;;;;28.10;20.37;;;7.70;99.90;;;;;;5072200;28;20235;-85
2021/12/04 05:15:56;;;;;;;30.00;21.07;;;7.70;99.90;;;;;;5072440;28;20707;-83
2021/12/04 05:18:32;;;;;;;28.87;20.43;;;7.70;99.90;;;;;;5071833;28;22636;-83
2021/12/04 05:21:06;;;;;;;31.27;20.80;;;7.70;99.90;;;;;;5072273;28;20231;-83
2021/12/04 05:23:35;;;;;;;28.83;19.90;;;7.70;99.90;;;;;;5073647;28;20298;-83
2021/12/04 05:26:05;;;;;;;29.17;20.80;;;7.70;99.90;;;;;;5073128;28;20227;-84
2021/12/04 05:28:31;;;;;;;33.57;21.73;;;7.70;99.90;;;;;;5071833;28;20258;-85
2021/12/04 05:30:58;;;;;;;30.10;21.13;;;7.70;99.90;;;;;;5071313;28;20232;-84
2021/12/04 05:33:25;;;;;;;30.00;22.03;;;7.70;99.90;;;;;;5072926;28;20295;-85
2021/12/04 05:35:53;;;;;;;28.57;20.00;;;7.70;99.90;;;;;;5073190;28;20684;-85
2021/12/04 05:38:20;;;;;;;29.40;21.43;;;7.70;99.90;;;;;;5071431;28;20231;-85
2021/12/04 05:40:48;;;;;;;31.50;21.20;;;7.60;99.90;;;;;;5071408;28;20225;-85
2021/12/04 05:43:18;;;;;;;29.73;20.70;;;7.60;99.90;;;;;;5070744;28;20711;-86
2021/12/04 05:45:48;;;;;;;28.53;20.73;;;7.60;99.90;;;;;;5082221;28;20880;-86
2021/12/04 05:48:18;;;;;;;30.97;21.20;;;7.60;99.90;;;;;;5090908;28;20254;-87
2021/12/04 05:51:04;;;;;;;28.37;20.73;;;7.60;99.90;;;;;;5090161;28;20229;-83
2021/12/04 05:53:41;;;;;;;28.47;20.10;;;7.60;99.90;;;;;;5092814;28;20218;-85
2021/12/04 05:56:08;;;;;;;27.90;20.80;;;7.60;99.90;;;;;;5080296;28;20230;-84
2021/12/04 05:58:36;;;;;;;26.40;19.80;;;7.70;99.90;;;;;;5066979;28;20649;-85
2021/12/04 06:01:06;;;;;;;25.37;19.13;;;7.60;99.90;;;;;;5070702;28;20606;-85
2021/12/04 06:03:34;;;;;;;30.40;20.77;;;7.60;99.90;;;;;;5066739;28;20235;-86
2021/12/04 06:06:01;;;;;;;28.57;20.83;;;7.60;99.90;;;;;;5076933;28;20731;-85
2021/12/04 06:08:28;;;;;;;27.13;19.93;;;7.60;99.90;;;;;;5070613;28;20727;-84
2021/12/04 06:10:56;;;;;;;28.67;20.73;;;7.60;99.90;;;;;;5086091;28;21045;-87
2021/12/04 06:13:23;;;;;;;25.83;19.53;;;7.60;99.90;;;;;;5067245;28;20215;-86
2021/12/04 06:15:52;;;;;;;24.53;18.50;;;7.60;99.90;;;;;;5069715;28;20205;-87
2021/12/04 06:18:21;;;;;;;27.60;19.23;;;7.50;99.90;;;;;;5072008;28;20247;-87
2021/12/04 06:23:32;;;;;;;25.50;18.87;;;7.60;99.90;;;;;;5070657;28;20207;-87
2021/12/04 06:26:00;;;;;;;29.33;20.27;;;7.50;99.90;;;;;;5083737;28;20211;-87
2021/12/04 06:28:27;;;;;;;25.97;19.23;;;7.60;99.90;;;;;;5077188;28;20690;-85
2021/12/04 06:30:55;;;;;;;46.47;20.93;;;7.50;99.90;;;;;;5070848;28;20242;-86
2021/12/04 06:33:23;;;;;;;32.10;20.27;;;7.50;99.90;;;;;;5088818;28;20215;-81
2021/12/04 06:35:49;;;;;;;26.80;19.20;;;7.50;99.90;;;;;;5083975;28;20855;-80
2021/12/04 06:38:19;;;;;;;35.37;20.50;;;7.50;99.90;;;;;;5087513;28;20233;-80
2021/12/04 06:40:47;;;;;;;30.77;19.37;;;7.50;99.90;;;;;;5087332;28;20237;-80
2021/12/04 06:43:14;;;;;;;27.87;19.27;;;7.60;99.90;;;;;;5078575;28;20233;-80
2021/12/04 06:45:43;;;;;;;36.63;20.73;;;7.50;99.90;;;;;;5094277;28;20215;-80
2021/12/04 06:48:15;;;;;;;30.43;19.87;;;7.50;99.90;;;;;;5095633;28;20245;-80
2021/12/04 06:50:45;;;;;;;31.27;19.47;;;7.60;99.90;;;;;;5085451;28;20236;-80
2021/12/04 06:53:20;;;;;;;32.30;20.87;;;7.50;99.90;;;;;;5083509;28;20223;-80
2021/12/04 06:55:49;;;;;;;33.40;19.97;;;7.50;99.90;;;;;;5083851;28;20221;-80
2021/12/04 06:58:16;;;;;;;34.17;21.23;;;7.50;99.90;;;;;;5083058;28;20207;-80
2021/12/04 07:00:43;;;;;;;31.73;21.23;;;7.50;99.90;;;;;;5080014;28;20226;-80
2021/12/04 07:03:12;;;;;;;30.00;20.60;;;7.50;99.90;;;;;;5084825;28;20671;-80
2021/12/04 07:05:38;;;;;;;31.40;19.73;;;7.50;99.90;;;;;;5085248;28;20218;-80
2021/12/04 07:08:05;;;;;;;29.33;19.60;;;7.50;99.90;;;;;;5087009;28;20767;-80
2021/12/04 07:10:33;;;;;;;32.47;19.73;;;7.50;99.90;;;;;;5088366;28;20214;-80
2021/12/04 07:13:00;;;;;;;30.90;20.10;;;7.50;99.90;;;;;;5082395;28;20253;-80
2021/12/04 07:15:31;;;;;;;29.43;20.20;;;7.50;99.90;;;;;;5086116;28;20349;-81
2021/12/04 07:17:58;;;;;;;33.83;20.03;;;7.50;99.90;;;;;;5085838;28;20235;-81
2021/12/04 07:20:27;;;;;;;31.40;19.97;;;7.50;99.90;;;;;;5086807;28;20730;-80
2021/12/04 07:22:54;;;;;;;28.17;20.33;;;7.50;99.90;;;;;;5084594;28;20604;-80
2021/12/04 07:25:21;;;;;;;31.13;19.80;;;7.50;99.90;;;;;;5086304;28;20213;-81
2021/12/04 07:27:50;;;;;;;34.33;19.63;;;7.50;99.90;;;;;;5088231;28;20297;-81
2021/12/04 07:30:17;;;;;;;29.60;19.47;;;7.50;99.90;;;;;;5083257;28;20219;-81
2021/12/04 07:32:44;;;;;;;28.50;18.77;;;7.60;99.90;;;;;;5087472;28;20794;-81
2021/12/04 07:35:11;;;;;;;25.20;18.07;;;7.60;99.90;;;;;;5087211;28;20784;-82
2021/12/04 07:37:39;;;;;;;29.50;18.60;;;7.60;99.90;;;;;;5086332;28;20233;-81
2021/12/04 07:40:07;;;;;;;29.73;19.03;;;7.60;99.90;;;;;;5087240;28;20232;-80
2021/12/04 07:42:34;;;;;;;29.17;19.53;;;7.60;99.90;;;;;;5087884;28;20237;-81
2021/12/04 07:45:00;;;;;;;27.20;19.10;;;7.60;99.90;;;;;;5091135;28;20221;-81
2021/12/04 07:47:28;;;;;;;28.60;20.17;;;7.60;99.90;;;;;;5088815;28;20222;-81
2021/12/04 07:49:55;;;;;;;26.87;18.23;;;7.60;99.90;;;;;;5082825;28;20253;-82
2021/12/04 07:52:22;;;;;;;27.70;18.70;;;7.60;99.90;;;;;;5086472;28;20222;-81
2021/12/04 07:54:50;;;;;;;25.87;17.50;;;7.60;99.90;;;;;;5086398;28;20238;-81
2021/12/04 07:57:17;;;;;;;26.43;16.90;;;7.60;99.90;;;;;;5094590;28;20202;-81
2021/12/04 07:59:44;;;;;;;25.70;17.47;;;7.60;99.90;;;;;;5087979;28;20298;-82
2021/12/04 08:02:12;;;;;;;28.27;19.93;;;7.60;99.90;;;;;;5087751;28;20226;-82
2021/12/04 08:04:39;;;;;;;20.30;15.47;;;7.60;99.90;;;;;;5087602;28;20249;-82
2021/12/04 08:07:05;;;;;;;27.83;17.30;;;7.60;99.90;;;;;;5080124;28;20966;-82
2021/12/04 08:09:32;;;;;;;22.60;16.37;;;7.60;99.90;;;;;;5084121;28;20227;-81
2021/12/04 08:12:00;;;;;;;23.70;16.63;;;7.60;99.90;;;;;;5091315;28;20225;-82
2021/12/04 08:14:27;;;;;;;24.33;17.20;;;7.70;99.90;;;;;;5090153;28;20256;-80
2021/12/04 08:16:54;;;;;;;23.20;17.50;;;7.60;99.90;;;;;;5091149;28;20272;-82
2021/12/04 08:19:21;;;;;;;23.73;17.57;;;7.60;99.90;;;;;;5090851;28;20226;-80
2021/12/04 08:21:48;;;;;;;20.53;15.00;;;7.60;99.90;;;;;;5091242;28;20230;-80
2021/12/04 08:24:15;;;;;;;21.83;15.77;;;7.60;99.90;;;;;;5087903;28;20223;-80
2021/12/04 08:26:44;;;;;;;19.30;15.33;;;7.70;99.90;;;;;;5090906;28;20223;-82
2021/12/04 08:29:12;;;;;;;19.23;14.60;;;7.70;99.90;;;;;;5084054;28;20257;-82
2021/12/04 08:31:39;;;;;;;23.77;13.83;;;7.70;99.90;;;;;;5089525;28;20237;-84
2021/12/04 08:34:06;;;;;;;27.30;13.87;;;7.70;99.90;;;;;;5091597;28;20293;-81
2021/12/04 08:36:33;;;;;;;19.20;14.47;;;7.70;99.90;;;;;;5084556;28;20226;-80
2021/12/04 08:39:00;;;;;;;18.70;13.73;;;7.80;99.90;;;;;;5087241;28;20221;-81
2021/12/04 08:41:27;;;;;;;18.13;13.30;;;7.70;99.90;;;;;;5080996;28;20219;-80
2021/12/04 08:43:54;;;;;;;42.53;15.27;;;7.70;99.90;;;;;;5091342;28;20222;-84
2021/12/04 08:46:23;;;;;;;28.63;14.50;;;7.70;99.90;;;;;;5099818;28;20222;-83
2021/12/04 08:48:52;;;;;;;28.67;13.77;;;7.70;99.90;;;;;;5089476;28;20254;-81
2021/12/04 08:51:21;;;;;;;59.80;17.47;;;7.70;99.90;;;;;;5078784;28;20216;-81
2021/12/04 08:53:49;;;;;;;18.50;14.33;;;7.70;99.90;;;;;;5081882;28;20223;-81
2021/12/04 08:56:15;;;;;;;41.87;14.63;;;7.70;99.90;;;;;;5087227;28;20865;-81
2021/12/04 08:58:42;;;;;;;37.00;15.30;;;7.70;99.90;;;;;;5090248;28;20238;-81
2021/12/04 09:01:13;;;;;;;22.20;14.13;;;7.70;99.90;;;;;;5083228;28;20739;-81
2021/12/04 09:03:44;;;;;;;22.93;14.27;;;7.70;99.90;;;;;;5084895;28;20225;-81
2021/12/04 09:06:11;;;;;;;23.37;13.97;;;7.70;99.90;;;;;;5088096;28;20664;-81
2021/12/04 09:08:39;;;;;;;18.90;14.00;;;7.80;99.90;;;;;;5086385;28;20222;-81
2021/12/04 09:11:09;;;;;;;18.67;12.70;;;7.80;99.90;;;;;;5089975;28;20214;-81
2021/12/04 09:13:37;;;;;;;28.73;14.70;;;7.80;99.90;;;;;;5087615;28;20679;-81
2021/12/04 09:16:04;;;;;;;26.70;14.90;;;7.80;99.90;;;;;;5086497;28;20207;-81
2021/12/04 09:18:32;;;;;;;31.67;14.87;;;7.80;99.90;;;;;;5085472;28;20227;-80
2021/12/04 09:21:00;;;;;;;20.90;14.53;;;7.80;99.90;;;;;;5080504;28;20224;-81
2021/12/04 09:23:32;;;;;;;22.27;13.60;;;7.80;99.90;;;;;;5087436;28;20215;-81
2021/12/04 09:26:02;;;;;;;25.07;13.80;;;7.80;99.90;;;;;;5080127;28;20701;-80
2021/12/04 09:28:38;;;;;;;25.70;14.43;;;7.70;99.90;;;;;;5084545;28;20238;-81
2021/12/04 09:31:24;;;;;;;21.77;14.93;;;7.80;99.90;;;;;;5081428;28;20226;-81
2021/12/04 09:34:19;;;;;;;23.70;15.83;;;7.80;99.90;;;;;;5084331;28;20229;-81
2021/12/04 09:59:31;;;;;;;18.87;14.13;;;7.90;99.90;;;;;;5052541;28;20290;-81
2021/12/04 10:02:14;;;;;;;21.73;13.67;;;8.00;99.90;;;;;;5059199;28;20231;-81
2021/12/04 10:05:00;;;;;;;21.23;13.97;;;7.90;99.90;;;;;;5063083;28;20226;-80
2021/12/04 10:13:20;;;;;;;19.80;14.50;;;8.00;99.90;;;;;;5075920;28;20234;-81
2021/12/04 10:24:31;;;;;;;20.13;12.80;;;8.00;99.90;;;;;;5058179;28;20268;-81
2021/12/04 10:32:39;;;;;;;15.97;12.23;;;8.00;99.90;;;;;;5024661;28;20818;-81
2021/12/04 10:35:12;;;;;;;17.70;11.67;;;8.10;99.90;;;;;;5078662;28;20224;-80
2021/12/04 10:38:05;;;;;;;17.63;12.30;;;8.00;99.90;;;;;;5084128;28;20225;-80
2021/12/04 10:40:37;;;;;;;18.90;12.97;;;8.00;99.90;;;;;;5063462;28;20225;-84
2021/12/04 10:43:08;;;;;;;16.60;12.57;;;8.00;99.90;;;;;;5082673;28;20221;-85
2021/12/04 10:45:38;;;;;;;18.00;12.97;;;8.00;99.90;;;;;;5083311;28;20711;-85
2021/12/04 10:48:09;;;;;;;19.40;13.03;;;7.90;99.90;;;;;;5085302;28;20260;-84
2021/12/04 10:50:43;;;;;;;19.33;12.93;;;7.90;99.90;;;;;;5083457;28;20283;-85
2021/12/04 10:53:16;;;;;;;16.93;12.27;;;7.90;99.90;;;;;;5082427;28;20214;-84
2021/12/04 10:55:48;;;;;;;18.73;12.33;;;7.90;99.90;;;;;;5083970;28;20229;-85
2021/12/04 11:01:17;;;;;;;18.37;12.17;;;7.80;99.90;;;;;;5077807;28;20222;-85
2021/12/04 11:03:51;;;;;;;19.87;13.00;;;7.80;99.90;;;;;;5085661;28;20218;-85
2021/12/04 11:21:07;;;;;;;19.23;13.00;;;7.80;99.90;;;;;;5080057;28;20631;-85
2021/12/04 11:40:34;;;;;;;17.47;11.93;;;7.80;99.90;;;;;;5080292;28;20560;-79
2021/12/04 11:43:04;;;;;;;16.27;11.87;;;7.80;99.90;;;;;;5070602;28;20659;-79
2021/12/04 11:45:44;;;;;;;18.37;12.20;;;7.80;99.90;;;;;;5092522;28;20302;-79
2021/12/04 11:48:11;;;;;;;17.60;12.20;;;7.80;99.90;;;;;;5064322;28;20636;-79
2021/12/04 11:50:40;;;;;;;16.73;11.17;;;7.90;99.90;;;;;;5062404;28;20276;-78
2021/12/04 11:53:10;;;;;;;14.13;10.77;;;7.90;99.90;;;;;;5067194;28;20203;-78
2021/12/04 11:55:41;;;;;;;14.27;11.13;;;8.00;99.90;;;;;;5066436;28;20266;-79
2021/12/04 11:58:18;;;;;;;16.23;11.50;;;8.00;99.90;;;;;;5066773;28;20716;-79
2021/12/04 12:00:45;;;;;;;13.83;11.00;;;8.00;99.90;;;;;;5064936;28;20250;-80
2021/12/04 12:03:15;;;;;;;16.60;12.30;;;8.10;99.90;;;;;;5061593;28;20211;-80
2021/12/04 12:05:45;;;;;;;16.13;12.37;;;8.10;99.90;;;;;;5066205;28;20211;-78
2021/12/04 12:08:23;;;;;;;16.23;11.43;;;8.10;99.90;;;;;;5044399;28;20232;-78
2021/12/04 12:10:54;;;;;;;13.83;10.27;;;8.10;99.90;;;;;;5063098;28;20280;-78
2021/12/04 12:13:27;;;;;;;12.93;9.77;;;8.10;99.90;;;;;;5066358;28;20216;-78
2021/12/04 12:16:10;;;;;;;12.17;10.40;;;8.10;99.90;;;;;;5063416;28;20335;-78
2021/12/04 12:18:52;;;;;;;11.83;9.27;;;8.10;99.90;;;;;;5063367;28;20335;-78
2021/12/04 12:21:22;;;;;;;13.10;10.10;;;8.10;99.90;;;;;;5063723;28;20251;-78
2021/12/04 12:26:59;;;;;;;16.27;11.13;;;8.10;99.90;;;;;;5063333;28;20230;-78
2021/12/04 12:32:42;;;;;;;14.37;10.83;;;8.20;99.90;;;;;;5063173;28;20369;-78
2021/12/04 12:38:04;;;;;;;18.00;12.07;;;8.20;99.90;;;;;;5064871;28;20713;-78
2021/12/04 12:40:30;;;;;;;14.40;10.90;;;8.30;99.90;;;;;;5063330;28;20224;-78
2021/12/04 12:43:11;;;;;;;17.00;11.70;;;8.30;99.90;;;;;;5063646;28;21109;-78
2021/12/04 12:45:38;;;;;;;14.13;10.90;;;8.30;99.90;;;;;;5063709;28;20311;-79
2021/12/04 12:48:07;;;;;;;16.97;11.53;;;8.30;99.90;;;;;;5063661;28;20216;-78
2021/12/04 12:50:39;;;;;;;15.30;10.97;;;8.30;99.90;;;;;;5056940;28;20231;-82
2021/12/04 12:53:10;;;;;;;13.43;10.53;;;8.30;99.90;;;;;;5049493;28;20216;-80
2021/12/04 12:55:38;;;;;;;16.10;11.20;;;8.30;99.90;;;;;;5048425;28;20224;-80
2021/12/04 12:58:23;;;;;;;15.10;11.17;;;8.30;99.90;;;;;;5043079;28;20219;-81
2021/12/04 13:11:57;;;;;;;12.67;10.40;;;8.20;99.90;;;;;;5048639;28;20806;-81
2021/12/04 13:14:28;;;;;;;14.20;11.13;;;8.20;99.90;;;;;;5042620;28;20256;-81
2021/12/04 13:17:03;;;;;;;14.40;10.20;;;8.10;99.90;;;;;;5041232;28;20840;-81
2021/12/04 13:19:30;;;;;;;14.37;10.00;;;8.10;99.90;;;;;;5046020;28;20255;-80
2021/12/04 13:21:59;;;;;;;14.47;10.77;;;8.10;99.90;;;;;;5050195;28;20212;-81
2021/12/04 13:24:29;;;;;;;14.43;10.77;;;8.10;99.90;;;;;;5049892;28;20299;-81
2021/12/04 13:26:58;;;;;;;14.00;10.60;;;8.10;99.90;;;;;;5049280;28;20208;-80
2021/12/04 13:29:28;;;;;;;15.37;11.03;;;8.00;99.90;;;;;;5051070;28;20213;-80
2021/12/04 13:31:55;;;;;;;17.70;11.70;;;8.00;99.90;;;;;;5049138;28;20224;-80
2021/12/04 13:34:25;;;;;;;14.47;10.87;;;8.00;99.90;;;;;;5048754;28;20246;-81
2021/12/04 13:36:53;;;;;;;14.37;10.93;;;8.00;99.90;;;;;;5048625;28;20317;-81
2021/12/04 13:39:21;;;;;;;16.73;11.73;;;8.00;99.90;;;;;;5047512;28;20291;-81
2021/12/04 13:41:49;;;;;;;13.57;10.57;;;8.00;99.90;;;;;;5044751;28;20224;-81
2021/12/04 13:44:19;;;;;;;13.37;10.60;;;8.00;99.90;;;;;;5040445;28;20721;-82
2021/12/04 13:46:51;;;;;;;14.67;10.13;;;8.00;99.90;;;;;;5049716;28;20524;-82
2021/12/04 13:49:20;;;;;;;13.83;10.33;;;8.00;99.90;;;;;;5043624;28;20224;-81
2021/12/04 13:51:52;;;;;;;13.03;9.80;;;8.00;99.90;;;;;;5056723;28;20225;-81
2021/12/04 13:54:19;;;;;;;12.90;9.23;;;8.10;99.90;;;;;;5046722;28;20228;-81
2021/12/04 13:56:46;;;;;;;13.17;10.30;;;8.10;99.90;;;;;;5048416;28;20216;-81
2021/12/04 13:59:14;;;;;;;11.60;9.43;;;8.10;99.90;;;;;;5046452;28;20273;-81
2021/12/04 14:01:43;;;;;;;11.30;9.07;;;8.10;99.90;;;;;;5043544;28;20239;-82
2021/12/04 14:04:16;;;;;;;11.50;8.80;;;8.10;99.90;;;;;;5050176;28;20745;-81
2021/12/04 14:06:52;;;;;;;12.53;9.53;;;8.10;99.90;;;;;;5043987;28;20239;-81
2021/12/04 14:09:19;;;;;;;14.33;9.57;;;8.20;99.90;;;;;;5047572;28;20212;-81
2021/12/04 14:11:47;;;;;;;11.53;8.80;;;8.20;99.90;;;;;;5042708;28;20331;-81
2021/12/04 14:14:17;;;;;;;14.70;9.80;;;8.20;99.90;;;;;;5041194;28;20736;-81
2021/12/04 14:16:46;;;;;;;13.47;10.10;;;8.20;99.90;;;;;;5049469;28;20216;-81
2021/12/04 14:19:17;;;;;;;11.77;9.77;;;8.20;99.90;;;;;;5048696;28;20239;-81
2021/12/04 14:21:53;;;;;;;14.17;10.60;;;8.20;99.90;;;;;;5041687;28;20226;-81
2021/12/04 14:24:25;;;;;;;12.53;10.17;;;8.20;99.90;;;;;;5037107;28;20226;-81
2021/12/04 14:26:53;;;;;;;15.30;10.73;;;8.20;99.90;;;;;;5044682;28;20216;-81
2021/12/04 14:29:20;;;;;;;15.13;11.37;;;8.20;99.90;;;;;;5043624;28;20238;-81
2021/12/04 14:31:47;;;;;;;16.27;11.27;;;8.20;99.90;;;;;;5043869;28;20255;-81
2021/12/04 14:34:22;;;;;;;16.73;11.23;;;8.20;99.90;;;;;;5040344;28;20234;-81
2021/12/04 14:36:59;;;;;;;18.43;12.00;;;8.20;99.90;;;;;;5039596;28;20232;-81
2021/12/04 14:39:26;;;;;;;18.67;12.37;;;8.20;99.90;;;;;;5040102;28;20223;-81
2021/12/04 14:41:53;;;;;;;20.43;13.10;;;8.20;99.90;;;;;;5045353;28;20868;-81
2021/12/04 14:44:19;;;;;;;20.47;12.40;;;8.20;99.90;;;;;;5046437;28;20224;-81
2021/12/04 14:46:47;;;;;;;18.20;11.70;;;8.20;99.90;;;;;;5044901;28;20224;-81
2021/12/04 14:49:15;;;;;;;15.67;10.73;;;8.20;99.90;;;;;;5046176;28;20228;-81
2021/12/04 14:51:43;;;;;;;18.37;12.83;;;8.20;99.90;;;;;;5044580;28;20910;-81
2021/12/04 14:54:10;;;;;;;16.67;12.60;;;8.20;99.90;;;;;;5043579;28;20298;-81
2021/12/04 14:56:37;;;;;;;15.73;11.30;;;8.20;99.90;;;;;;5041468;28;20216;-81
2021/12/04 14:59:14;;;;;;;17.80;10.40;;;8.10;99.90;;;;;;5042820;28;20222;-81
2021/12/04 15:01:41;;;;;;;15.43;9.87;;;8.10;99.90;;;;;;5036499;28;20226;-81
2021/12/04 15:04:09;;;;;;;12.83;9.67;;;8.10;99.90;;;;;;5041215;28;20834;-81
2021/12/04 15:06:39;;;;;;;16.90;11.27;;;8.10;99.90;;;;;;5036000;28;20228;-81
2021/12/04 15:09:10;;;;;;;12.40;10.03;;;8.10;99.90;;;;;;5042859;28;20220;-78
2021/12/04 15:11:38;;;;;;;12.73;9.97;;;8.10;99.90;;;;;;5045235;28;20262;-79
2021/12/04 15:14:09;;;;;;;13.50;10.53;;;8.10;99.90;;;;;;5043860;28;20261;-79